Airfield :







YOU CAN JOIN US ON...

 
LOGIN :

Register | Disclaimer

   EN    FR    IT 

 









Legend :    VFR   Marginal VFR   IFR   Intensive IFR   Very Intensive IFR
Visi :
Ceiling :
>= 8 km
>= 3000ft
5 to 8 km
1000 to 3000 ft
1500m to 5 km
500 to 1000 ft
800 to 1500m
200 to 500 ft
< 800m
< 200 ft
Symbols :   Thunderstorms  Fog  Heavy snow  Heavy precipitations  Wind > 20 kt






- Airport Elevation : 352 ft


KAUG - Augusta State

CURRENT METAR :
  • 040753Z AUTO 29010G17KT 10SM OVC050 06/M04 A2992 RMK AO2 SLP132 T00561044

EXPIRED METARs :
  • 040653Z AUTO 30015G19KT 10SM OVC050 06/M04 A2990 RMK AO2 SLP126 T00561039
  • 040553Z AUTO 29009KT 10SM OVC048 06/M02 A2988 RMK AO2 SLP121 60001 T00611022 10117 20061 51021
  • 040453Z AUTO 28009G18KT 10SM BKN049 06/M03 A2986 RMK AO2 SLP113 T00611028 401220011

TAF KAUG
Valid from the 04 at 06:00 until the 05 at 06:00 UTC


040523Z 0406/0506 28010G17KT P6SM SCT050
FM041400 30010G18KT P6SM FEW250
FM042200 VRB03KT P6SM SKC
KZBW FIR / North America



MET'MAP, your aeronautical weather chart ! - Copyright ORBIFLY December 2007 - Disclaimer

ORBIFLY MET'MAP TEAM :

Programming & Development : Alexandra Zaïnal
Original concept : Baudouin d'Aumeries
Technical & hardware support : Manuel Goepfert
Assistance : Marc-Olivier Méhu




SOURCES & CREDITS :

   NOAA